Time;durP1;ratioP1;P1;durP2;ratioP2;P2;SDS_P1;SDS_P2;PMS_P1;PMS_P2;Temp;Humidity;BMP_temperature;BMP_pressure;BME280_temperature;BME280_humidity;BME280_pressure;Samples;Min_cycle;Max_cycle;Signal;HPM_P1;HPM_P2
2021/04/07 00:00:13;;;;;;;13.23;8.67;;;2.10;92.20;;;;;;5079474;28;20853;-71
2021/04/07 00:02:39;;;;;;;14.17;9.27;;;2.10;92.30;;;;;;5073541;28;20969;-71
2021/04/07 00:05:08;;;;;;;10.67;8.47;;;2.10;92.40;;;;;;5073250;28;21003;-71
2021/04/07 00:07:36;;;;;;;11.23;8.37;;;2.00;92.40;;;;;;5072836;28;20532;-71
2021/04/07 00:10:04;;;;;;;10.33;8.40;;;2.00;92.50;;;;;;5073397;28;20952;-71
2021/04/07 00:12:30;;;;;;;12.40;8.63;;;2.00;92.50;;;;;;5073802;28;20428;-71
2021/04/07 00:14:56;;;;;;;13.40;8.20;;;2.00;92.50;;;;;;5073603;28;20446;-71
2021/04/07 00:17:22;;;;;;;9.30;8.20;;;2.10;92.60;;;;;;5073220;28;20985;-71
2021/04/07 00:19:49;;;;;;;13.40;6.97;;;2.00;92.50;;;;;;5073618;28;20450;-71
2021/04/07 00:22:15;;;;;;;11.23;7.70;;;1.90;92.60;;;;;;5073484;28;20505;-71
2021/04/07 00:24:42;;;;;;;13.97;8.87;;;2.00;92.70;;;;;;5073590;28;20456;-71
2021/04/07 00:27:10;;;;;;;9.20;6.37;;;1.90;92.70;;;;;;5073151;28;21015;-71
2021/04/07 00:29:37;;;;;;;13.23;7.47;;;1.90;92.70;;;;;;5073482;28;20446;-71
2021/04/07 00:32:04;;;;;;;9.20;6.90;;;1.90;92.70;;;;;;5073176;28;20446;-71
2021/04/07 00:34:32;;;;;;;7.17;6.10;;;1.90;92.60;;;;;;5073477;28;20448;-71
2021/04/07 00:36:58;;;;;;;6.77;5.80;;;2.00;92.60;;;;;;5073381;28;20502;-71
2021/04/07 00:39:24;;;;;;;12.33;5.80;;;2.00;92.50;;;;;;5073407;28;20450;-71
2021/04/07 00:41:51;;;;;;;13.70;6.00;;;1.90;92.40;;;;;;5073099;28;20996;-71
2021/04/07 00:44:18;;;;;;;8.00;5.80;;;2.00;92.50;;;;;;5073351;28;20502;-71
2021/04/07 00:46:44;;;;;;;7.70;5.90;;;1.90;92.50;;;;;;5073887;28;20466;-71
2021/04/07 00:49:10;;;;;;;9.87;4.80;;;1.90;92.50;;;;;;5073026;28;20450;-71
2021/04/07 00:51:44;;;;;;;11.20;5.80;;;1.90;92.50;;;;;;5073305;28;20443;-71
2021/04/07 00:54:10;;;;;;;8.00;5.00;;;1.80;92.50;;;;;;5073308;28;20465;-71
2021/04/07 00:56:37;;;;;;;7.63;5.00;;;1.90;92.70;;;;;;5073133;28;20465;-71
2021/04/07 00:59:04;;;;;;;6.97;4.43;;;1.90;92.80;;;;;;5073264;28;20496;-71
2021/04/07 01:01:31;;;;;;;4.70;4.20;;;1.90;92.70;;;;;;5073190;28;20490;-71
2021/04/07 01:03:57;;;;;;;9.60;4.50;;;1.90;92.70;;;;;;5073230;28;20497;-71
2021/04/07 01:06:24;;;;;;;6.43;4.30;;;1.90;92.80;;;;;;5073100;28;20476;-71
2021/04/07 01:08:50;;;;;;;4.23;3.83;;;1.90;92.70;;;;;;5072870;28;20454;-71
2021/04/07 01:11:17;;;;;;;7.83;4.30;;;2.00;92.70;;;;;;5073156;28;20450;-71
2021/04/07 01:13:43;;;;;;;6.20;4.00;;;1.90;92.70;;;;;;5073157;28;20446;-71
2021/04/07 01:16:11;;;;;;;7.10;4.50;;;2.00;92.60;;;;;;5073012;28;20520;-71
2021/04/07 01:18:37;;;;;;;5.07;4.17;;;2.00;92.60;;;;;;5075857;28;20476;-71
2021/04/07 01:21:05;;;;;;;6.77;3.97;;;1.90;92.60;;;;;;5076545;28;21018;-71
2021/04/07 01:23:32;;;;;;;5.13;3.77;;;1.90;92.60;;;;;;5076857;28;20532;-71
2021/04/07 01:25:59;;;;;;;6.60;4.00;;;1.90;92.70;;;;;;5076722;28;20466;-71
2021/04/07 01:28:26;;;;;;;6.60;4.07;;;1.90;92.80;;;;;;5076732;28;20443;-71
2021/04/07 01:30:52;;;;;;;14.90;4.77;;;1.90;92.80;;;;;;5076751;28;20785;-71
2021/04/07 01:33:20;;;;;;;6.30;4.00;;;1.90;92.70;;;;;;5076655;28;20513;-71
2021/04/07 01:35:46;;;;;;;8.87;4.13;;;1.90;92.60;;;;;;5076578;28;20468;-71
2021/04/07 01:38:12;;;;;;;6.40;3.50;;;1.90;92.50;;;;;;5076688;28;20442;-71
2021/04/07 01:40:41;;;;;;;7.47;4.00;;;1.90;92.60;;;;;;5076600;28;20840;-71
2021/04/07 01:43:09;;;;;;;10.80;4.13;;;1.90;92.60;;;;;;5076515;28;20485;-71
2021/04/07 01:45:35;;;;;;;4.47;3.60;;;1.90;92.70;;;;;;5076468;28;20470;-71
2021/04/07 01:48:03;;;;;;;5.63;2.87;;;1.80;92.60;;;;;;5076359;28;20450;-71
2021/04/07 01:50:29;;;;;;;5.20;3.80;;;1.90;93.10;;;;;;5076361;28;20445;-71
2021/04/07 01:52:55;;;;;;;6.93;3.97;;;1.90;92.70;;;;;;5076070;28;20976;-71
2021/04/07 01:55:22;;;;;;;4.30;3.43;;;1.90;92.60;;;;;;5076318;28;20455;-71
2021/04/07 01:57:49;;;;;;;5.90;3.60;;;1.90;92.70;;;;;;5076234;28;20521;-71
2021/04/07 02:00:17;;;;;;;5.80;4.30;;;1.90;92.70;;;;;;5075962;28;20948;-71
2021/04/07 02:02:44;;;;;;;5.03;4.37;;;1.90;92.80;;;;;;5076219;28;20526;-71
2021/04/07 02:05:11;;;;;;;6.80;4.23;;;1.90;92.80;;;;;;5076197;28;20452;-71
2021/04/07 02:07:38;;;;;;;7.20;4.37;;;1.90;92.80;;;;;;5075786;28;20493;-71
2021/04/07 02:10:06;;;;;;;8.90;6.03;;;1.90;92.90;;;;;;5076004;28;20452;-71
2021/04/07 02:12:32;;;;;;;9.60;6.47;;;1.90;92.90;;;;;;5076014;28;20443;-71
2021/04/07 02:14:59;;;;;;;8.20;5.43;;;1.90;93.10;;;;;;5076091;28;20443;-71
2021/04/07 02:17:26;;;;;;;10.40;4.87;;;1.90;93.30;;;;;;5075854;28;20471;-71
2021/04/07 02:19:52;;;;;;;7.43;5.70;;;1.90;93.40;;;;;;5075869;28;20447;-71
2021/04/07 02:22:19;;;;;;;8.00;5.63;;;1.90;93.40;;;;;;5075766;28;20479;-71
2021/04/07 02:24:47;;;;;;;7.30;5.40;;;2.00;93.30;;;;;;5075798;28;20443;-71
2021/04/07 02:27:16;;;;;;;8.83;5.50;;;2.00;93.40;;;;;;5075380;28;21037;-71
2021/04/07 02:29:43;;;;;;;7.37;5.67;;;1.90;93.60;;;;;;5074537;28;20505;-71
2021/04/07 02:32:10;;;;;;;7.23;6.10;;;2.00;93.60;;;;;;5075626;28;20794;-71
2021/04/07 02:34:38;;;;;;;10.00;6.20;;;1.90;93.70;;;;;;5075571;28;20860;-71
2021/04/07 02:37:05;;;;;;;11.40;5.80;;;2.00;93.80;;;;;;5075426;28;20492;-71
2021/04/07 02:39:31;;;;;;;10.77;5.43;;;2.00;93.70;;;;;;5075497;28;20449;-71
2021/04/07 02:41:58;;;;;;;6.97;5.10;;;2.10;93.60;;;;;;5075305;28;20474;-71
2021/04/07 02:44:24;;;;;;;7.33;5.93;;;2.10;93.50;;;;;;5075347;28;20447;-71
2021/04/07 02:46:51;;;;;;;9.77;6.50;;;2.10;93.50;;;;;;5075218;28;20489;-71
2021/04/07 02:49:17;;;;;;;8.13;6.00;;;2.10;93.50;;;;;;5075227;28;20448;-71
2021/04/07 02:51:44;;;;;;;8.90;6.27;;;2.10;93.50;;;;;;5075319;28;20450;-71
2021/04/07 02:54:10;;;;;;;10.00;6.23;;;2.10;93.60;;;;;;5075173;28;20482;-71
2021/04/07 02:56:36;;;;;;;7.27;6.50;;;2.20;93.60;;;;;;5075242;28;20474;-71
2021/04/07 02:59:03;;;;;;;8.03;7.13;;;2.20;93.50;;;;;;5074757;28;20941;-71
2021/04/07 03:01:29;;;;;;;10.00;7.40;;;2.10;93.50;;;;;;5074725;28;20502;-71
2021/04/07 03:03:55;;;;;;;9.50;7.43;;;2.20;93.60;;;;;;5075010;28;20444;-71
2021/04/07 03:06:22;;;;;;;7.93;7.13;;;2.20;93.50;;;;;;5074856;28;20821;-71
2021/04/07 03:08:49;;;;;;;7.90;7.10;;;2.10;93.60;;;;;;5074489;28;20454;-71
2021/04/07 03:11:15;;;;;;;9.27;6.93;;;2.10;93.60;;;;;;5074816;28;20499;-71
2021/04/07 03:13:42;;;;;;;12.83;7.73;;;2.10;93.80;;;;;;5074501;28;21002;-71
2021/04/07 03:16:08;;;;;;;17.43;9.27;;;2.10;94.00;;;;;;5074532;28;20473;-71
2021/04/07 03:18:35;;;;;;;14.60;9.17;;;2.00;93.90;;;;;;5074715;28;20445;-71
2021/04/07 03:21:01;;;;;;;15.43;8.50;;;2.00;94.00;;;;;;5074645;28;20443;-71
2021/04/07 03:23:27;;;;;;;12.80;9.60;;;2.00;94.10;;;;;;5074660;28;20443;-71
2021/04/07 03:25:54;;;;;;;10.50;8.00;;;2.00;94.30;;;;;;5074564;28;20467;-71
2021/04/07 03:28:21;;;;;;;11.87;8.30;;;2.00;94.40;;;;;;5074425;28;20492;-71
2021/04/07 03:30:50;;;;;;;11.50;8.57;;;2.00;94.40;;;;;;5074180;28;20935;-71
2021/04/07 03:33:21;;;;;;;11.77;8.40;;;2.00;94.40;;;;;;5074155;28;20937;-71
2021/04/07 03:35:48;;;;;;;13.53;9.40;;;2.00;94.40;;;;;;5074359;28;20466;-71
2021/04/07 03:38:15;;;;;;;14.27;9.10;;;2.00;94.50;;;;;;5074281;28;20447;-71
2021/04/07 03:40:41;;;;;;;11.13;8.80;;;2.10;94.80;;;;;;5073970;28;20450;-71
2021/04/07 03:43:10;;;;;;;10.80;8.40;;;2.10;94.50;;;;;;5074124;28;20489;-71
2021/04/07 03:45:37;;;;;;;14.80;9.73;;;2.10;94.60;;;;;;5073798;28;20930;-71
2021/04/07 03:48:04;;;;;;;15.67;8.80;;;2.00;94.50;;;;;;5073992;28;20493;-71
2021/04/07 03:50:31;;;;;;;11.67;8.77;;;2.00;94.50;;;;;;5074256;28;20786;-71
2021/04/07 03:52:57;;;;;;;10.00;8.30;;;2.00;94.50;;;;;;5074315;28;20440;-71
2021/04/07 03:55:23;;;;;;;11.10;8.57;;;2.00;94.50;;;;;;5073993;28;20474;-71
2021/04/07 03:57:49;;;;;;;12.30;8.30;;;2.00;94.70;;;;;;5073913;28;20467;-71
2021/04/07 04:00:17;;;;;;;12.23;8.03;;;2.00;94.70;;;;;;5074019;28;20439;-71
2021/04/07 04:02:43;;;;;;;10.10;7.80;;;2.00;94.80;;;;;;5073515;28;21004;-71
2021/04/07 04:05:11;;;;;;;10.40;7.83;;;2.00;94.80;;;;;;5073881;28;20450;-71
2021/04/07 04:07:37;;;;;;;10.83;7.83;;;2.00;94.80;;;;;;5073340;28;20484;-71
2021/04/07 04:10:04;;;;;;;11.57;7.93;;;2.00;94.80;;;;;;5073800;28;20478;-71
2021/04/07 04:12:30;;;;;;;13.43;8.67;;;2.00;94.80;;;;;;5073746;28;20844;-71
2021/04/07 04:14:56;;;;;;;8.70;7.40;;;2.00;94.80;;;;;;5073652;28;20451;-71
2021/04/07 04:17:23;;;;;;;10.37;7.97;;;2.10;94.90;;;;;;5073611;28;20471;-71
2021/04/07 04:19:49;;;;;;;10.17;6.80;;;2.10;94.90;;;;;;5073633;28;20451;-71
2021/04/07 04:22:16;;;;;;;10.90;7.30;;;2.10;94.80;;;;;;5073522;28;20475;-71
2021/04/07 04:24:42;;;;;;;10.60;7.30;;;2.10;94.80;;;;;;5073625;28;20447;-71
2021/04/07 04:27:09;;;;;;;8.47;7.03;;;2.10;94.70;;;;;;5073428;28;20475;-71
2021/04/07 04:29:36;;;;;;;8.47;6.40;;;2.10;94.60;;;;;;5073485;28;20500;-71
2021/04/07 04:32:02;;;;;;;10.77;8.63;;;2.10;94.70;;;;;;5073150;28;20443;-71
2021/04/07 04:34:29;;;;;;;11.17;7.57;;;2.20;94.70;;;;;;5073530;28;20456;-71
2021/04/07 04:36:56;;;;;;;10.90;8.10;;;2.20;94.80;;;;;;5073387;28;20469;-71
2021/04/07 04:39:22;;;;;;;9.73;8.63;;;2.20;94.70;;;;;;5073409;28;20447;-71
2021/04/07 04:41:48;;;;;;;13.30;9.03;;;2.20;94.60;;;;;;5073473;28;20518;-71
2021/04/07 04:44:14;;;;;;;10.83;9.10;;;2.20;94.50;;;;;;5073538;28;20448;-71
2021/04/07 04:46:40;;;;;;;13.63;10.50;;;2.20;94.50;;;;;;5073312;28;20876;-71
2021/04/07 04:49:06;;;;;;;12.27;10.40;;;2.20;94.50;;;;;;5073347;28;20447;-71
2021/04/07 04:51:34;;;;;;;9.80;8.80;;;2.20;94.60;;;;;;5073333;28;20442;-71
2021/04/07 04:54:00;;;;;;;10.07;8.80;;;2.20;94.60;;;;;;5076725;28;20964;-71
2021/04/07 04:56:26;;;;;;;10.50;9.03;;;2.20;94.50;;;;;;5077097;28;20470;-71
2021/04/07 04:58:52;;;;;;;11.07;9.30;;;2.20;94.40;;;;;;5077369;28;20505;-71
2021/04/07 05:01:18;;;;;;;13.53;9.67;;;2.20;94.40;;;;;;5077337;28;20439;-71
2021/04/07 05:03:45;;;;;;;11.30;9.87;;;2.20;94.30;;;;;;5076989;28;21011;-71
2021/04/07 05:06:11;;;;;;;12.03;9.43;;;2.20;94.40;;;;;;5077143;28;20480;-71
2021/04/07 05:08:38;;;;;;;11.47;8.50;;;2.20;94.40;;;;;;5076785;28;20964;-71
2021/04/07 05:11:04;;;;;;;10.20;9.13;;;2.30;94.40;;;;;;5077119;28;20447;-71
2021/04/07 05:13:30;;;;;;;11.40;8.60;;;2.30;94.50;;;;;;5077050;28;20810;-71
2021/04/07 05:15:56;;;;;;;9.37;8.47;;;2.30;94.40;;;;;;5077683;28;20847;-71
2021/04/07 05:18:24;;;;;;;11.17;9.20;;;2.30;94.40;;;;;;5076607;28;20459;-71
2021/04/07 05:20:50;;;;;;;8.60;7.73;;;2.30;94.50;;;;;;5076897;28;20444;-71
2021/04/07 05:23:16;;;;;;;11.63;9.23;;;2.40;94.50;;;;;;5076843;28;20847;-71
2021/04/07 05:25:44;;;;;;;13.40;9.00;;;2.40;94.50;;;;;;5076763;28;20501;-71
2021/04/07 05:28:10;;;;;;;9.47;8.47;;;2.40;94.60;;;;;;5076730;28;20506;-71
2021/04/07 05:33:20;;;;;;;10.80;8.93;;;2.40;94.90;;;;;;5076735;28;20398;-71
2021/04/07 05:35:47;;;;;;;13.43;8.47;;;2.40;95.10;;;;;;5076575;28;20458;-71
2021/04/07 05:38:13;;;;;;;9.47;8.47;;;2.40;95.20;;;;;;5076231;28;20452;-71
2021/04/07 05:40:41;;;;;;;8.00;7.20;;;2.40;95.40;;;;;;5076540;28;20433;-71
2021/04/07 05:43:08;;;;;;;12.50;8.03;;;2.40;95.60;;;;;;5076346;28;20827;-71
2021/04/07 05:45:37;;;;;;;10.40;9.30;;;2.40;95.70;;;;;;5076888;28;20447;-71
2021/04/07 05:48:04;;;;;;;13.63;9.70;;;2.40;95.80;;;;;;5076061;28;20933;-71
2021/04/07 05:50:30;;;;;;;11.93;9.10;;;2.40;95.80;;;;;;5076403;28;20432;-71
2021/04/07 05:52:56;;;;;;;11.63;8.80;;;2.30;95.80;;;;;;5075979;28;20792;-71
2021/04/07 05:55:22;;;;;;;12.20;9.17;;;2.30;96.00;;;;;;5076334;28;20424;-71
2021/04/07 05:57:56;;;;;;;12.13;8.33;;;2.30;96.20;;;;;;5076165;28;20470;-71
2021/04/07 06:00:24;;;;;;;10.63;8.80;;;2.30;96.20;;;;;;5076190;28;20432;-70
2021/04/07 06:02:53;;;;;;;12.30;9.17;;;2.30;96.30;;;;;;5075949;28;20826;-70
2021/04/07 06:05:20;;;;;;;11.90;10.60;;;2.30;96.30;;;;;;5076094;28;20457;-70
2021/04/07 06:07:46;;;;;;;14.40;11.03;;;2.30;96.30;;;;;;5075716;28;20562;-70
2021/04/07 06:10:14;;;;;;;17.27;12.80;;;2.30;96.40;;;;;;5075999;28;20504;-70
2021/04/07 06:12:41;;;;;;;13.10;11.70;;;2.30;96.60;;;;;;5075996;28;20420;-70
2021/04/07 06:15:09;;;;;;;15.70;13.60;;;2.30;96.60;;;;;;5075855;28;20450;-69
2021/04/07 06:17:37;;;;;;;13.43;10.80;;;2.30;96.60;;;;;;5075663;28;20472;-69
2021/04/07 06:20:06;;;;;;;15.07;11.57;;;2.30;96.60;;;;;;5075455;28;20434;-69
2021/04/07 06:22:32;;;;;;;16.57;11.23;;;2.30;96.60;;;;;;5075705;28;20470;-69
2021/04/07 06:24:59;;;;;;;13.70;10.73;;;2.30;96.70;;;;;;5075685;28;20468;-69
2021/04/07 06:27:25;;;;;;;19.67;11.50;;;2.30;96.70;;;;;;5075264;28;21009;-69
2021/04/07 06:29:51;;;;;;;15.93;10.37;;;2.30;96.70;;;;;;5075625;28;20451;-69
2021/04/07 06:32:18;;;;;;;19.60;13.17;;;2.30;96.80;;;;;;5075320;28;20445;-69
2021/04/07 06:34:45;;;;;;;14.60;12.30;;;2.30;96.70;;;;;;5075544;28;20444;-70
2021/04/07 06:37:11;;;;;;;15.80;9.87;;;2.30;97.10;;;;;;5075420;28;20481;-69
2021/04/07 06:39:37;;;;;;;15.33;9.80;;;2.30;96.70;;;;;;5075452;28;20440;-69
2021/04/07 06:42:05;;;;;;;12.47;10.63;;;2.30;96.60;;;;;;5075348;28;20479;-68
2021/04/07 06:44:31;;;;;;;11.63;9.17;;;2.30;96.40;;;;;;5075363;28;20459;-69
2021/04/07 06:46:58;;;;;;;14.90;9.33;;;2.30;96.50;;;;;;5075200;28;20477;-69
2021/04/07 06:49:27;;;;;;;9.57;8.50;;;2.30;96.40;;;;;;5075264;28;20451;-69
2021/04/07 06:51:55;;;;;;;9.57;7.90;;;2.30;96.40;;;;;;5075264;28;20438;-69
2021/04/07 06:54:22;;;;;;;11.30;8.10;;;2.30;96.40;;;;;;5075241;28;20448;-69
2021/04/07 06:56:49;;;;;;;11.90;8.90;;;2.30;96.20;;;;;;5074985;28;21016;-70
2021/04/07 06:59:16;;;;;;;10.60;8.50;;;2.30;96.40;;;;;;5075108;28;20447;-70
2021/04/07 07:01:42;;;;;;;12.13;8.60;;;2.30;96.40;;;;;;5074973;28;20484;-70
2021/04/07 07:04:09;;;;;;;10.30;8.67;;;2.30;96.40;;;;;;5074980;28;20441;-70
2021/04/07 07:06:35;;;;;;;7.83;7.00;;;2.30;96.30;;;;;;5074792;28;20834;-69
2021/04/07 07:09:13;;;;;;;9.20;7.73;;;2.40;96.20;;;;;;5074608;28;21000;-69
2021/04/07 07:11:40;;;;;;;8.80;6.47;;;2.40;96.00;;;;;;5074857;28;20438;-68
2021/04/07 07:14:06;;;;;;;9.60;6.67;;;2.30;96.00;;;;;;5074495;28;20443;-68
2021/04/07 07:16:32;;;;;;;7.40;5.47;;;2.30;95.80;;;;;;5074151;28;20467;-69
2021/04/07 07:18:59;;;;;;;7.43;6.40;;;2.40;95.90;;;;;;5074655;28;20459;-69
2021/04/07 07:21:25;;;;;;;7.67;6.70;;;2.30;96.10;;;;;;5074597;28;20452;-69
2021/04/07 07:23:52;;;;;;;8.03;7.20;;;2.30;96.20;;;;;;5074500;28;20444;-69
2021/04/07 07:26:20;;;;;;;7.83;6.87;;;2.30;96.40;;;;;;5075309;28;20459;-69
2021/04/07 07:28:50;;;;;;;14.63;7.07;;;2.30;96.40;;;;;;5075790;28;20431;-68
2021/04/07 07:31:21;;;;;;;8.23;6.87;;;2.30;96.50;;;;;;5075625;28;20439;-68
2021/04/07 07:33:48;;;;;;;10.87;6.40;;;2.30;96.60;;;;;;5074449;28;20530;-68
2021/04/07 07:36:14;;;;;;;8.53;7.03;;;2.20;96.70;;;;;;5073951;28;20853;-68
2021/04/07 07:38:48;;;;;;;11.20;6.90;;;2.30;96.90;;;;;;5074280;28;20505;-68
2021/04/07 07:41:15;;;;;;;10.93;6.40;;;2.20;96.80;;;;;;5074282;28;20535;-68
2021/04/07 07:43:42;;;;;;;11.70;7.53;;;2.30;97.00;;;;;;5074193;28;20800;-68
2021/04/07 07:46:10;;;;;;;7.60;6.50;;;2.30;97.00;;;;;;5074214;28;20514;-68
2021/04/07 07:48:38;;;;;;;11.53;7.10;;;2.30;97.00;;;;;;5073788;28;20977;-68
2021/04/07 07:51:13;;;;;;;9.73;6.30;;;2.30;97.00;;;;;;5074434;28;20431;-68
2021/04/07 07:53:42;;;;;;;9.83;6.30;;;2.30;96.90;;;;;;5073930;28;20420;-69
2021/04/07 07:56:09;;;;;;;6.93;5.87;;;2.40;97.00;;;;;;5073495;28;20502;-69
2021/04/07 07:58:42;;;;;;;6.63;5.47;;;2.30;96.90;;;;;;5074458;28;20454;-69
2021/04/07 08:01:13;;;;;;;9.03;6.30;;;2.30;96.90;;;;;;5074008;28;20827;-70
2021/04/07 08:03:40;;;;;;;6.90;5.80;;;2.30;97.00;;;;;;5073584;28;20467;-71
2021/04/07 08:06:29;;;;;;;6.63;5.20;;;2.40;97.00;;;;;;5073967;28;20466;-68
2021/04/07 08:09:12;;;;;;;7.90;6.20;;;2.40;96.90;;;;;;5073892;28;20452;-68
2021/04/07 08:11:50;;;;;;;5.50;5.00;;;2.30;96.90;;;;;;5073926;28;20447;-68
2021/04/07 08:14:19;;;;;;;6.13;5.63;;;2.40;97.10;;;;;;5073756;28;20428;-68
2021/04/07 08:16:47;;;;;;;5.97;5.47;;;2.30;97.00;;;;;;5073608;28;20482;-68
2021/04/07 08:19:15;;;;;;;6.87;6.07;;;2.30;97.10;;;;;;5073680;28;20944;-68
2021/04/07 08:21:43;;;;;;;8.03;4.93;;;2.30;97.10;;;;;;5073743;28;20487;-68
2021/04/07 08:24:11;;;;;;;9.50;5.37;;;2.30;97.00;;;;;;5073760;28;20445;-68
2021/04/07 08:26:41;;;;;;;5.93;5.43;;;2.30;97.00;;;;;;5075566;28;20900;-68
2021/04/07 08:29:08;;;;;;;6.30;5.40;;;2.30;97.00;;;;;;5079804;28;20454;-68
2021/04/07 08:31:38;;;;;;;5.23;4.57;;;2.30;97.10;;;;;;5076345;28;20543;-68
2021/04/07 08:34:06;;;;;;;5.90;4.90;;;2.30;97.10;;;;;;5073768;28;20448;-67
2021/04/07 08:36:33;;;;;;;5.93;5.40;;;2.30;97.10;;;;;;5073460;28;20467;-68
2021/04/07 08:39:00;;;;;;;6.30;5.70;;;2.30;97.10;;;;;;5073353;28;20450;-70
2021/04/07 08:41:27;;;;;;;5.43;5.03;;;2.30;97.20;;;;;;5073269;28;20458;-67
2021/04/07 08:43:54;;;;;;;6.03;5.50;;;2.30;97.10;;;;;;5073328;28;20470;-67
2021/04/07 08:46:24;;;;;;;7.27;5.60;;;2.30;97.20;;;;;;5072936;28;20471;-68
2021/04/07 08:48:51;;;;;;;5.33;4.80;;;2.30;97.10;;;;;;5073335;28;20443;-68
2021/04/07 08:51:19;;;;;;;5.77;5.23;;;2.30;97.00;;;;;;5073293;28;20435;-68
2021/04/07 08:53:49;;;;;;;5.60;5.00;;;2.30;97.20;;;;;;5073295;28;20431;-68
2021/04/07 08:56:17;;;;;;;12.00;5.57;;;2.40;97.30;;;;;;5073080;28;20523;-68
2021/04/07 08:58:51;;;;;;;6.30;5.70;;;2.40;97.20;;;;;;5073134;28;20450;-67
2021/04/07 09:01:21;;;;;;;4.90;4.50;;;2.40;97.10;;;;;;5073139;28;20454;-67
2021/04/07 09:03:47;;;;;;;5.30;4.70;;;2.40;97.00;;;;;;5073043;28;20595;-71
2021/04/07 09:06:15;;;;;;;5.63;5.13;;;2.40;97.10;;;;;;5072984;28;20467;-71
2021/04/07 09:08:52;;;;;;;5.87;5.30;;;2.40;97.20;;;;;;5072731;28;20458;-71
2021/04/07 09:11:26;;;;;;;5.40;4.93;;;2.40;97.20;;;;;;5073063;28;20487;-70
2021/04/07 09:13:59;;;;;;;6.17;4.47;;;2.40;97.20;;;;;;5073059;28;20435;-71
2021/04/07 09:16:37;;;;;;;5.70;5.20;;;2.40;97.30;;;;;;5073440;28;20467;-71
2021/04/07 09:19:22;;;;;;;5.03;4.60;;;2.50;97.40;;;;;;5073097;28;20428;-71
2021/04/07 09:21:56;;;;;;;6.17;5.60;;;2.40;97.40;;;;;;5073023;28;20465;-70
2021/04/07 09:24:26;;;;;;;5.47;4.97;;;2.50;97.60;;;;;;5073015;28;20874;-71
2021/04/07 09:26:54;;;;;;;5.73;5.23;;;2.50;97.60;;;;;;5072904;28;20520;-71
2021/04/07 09:29:20;;;;;;;5.00;4.60;;;2.50;97.60;;;;;;5072901;28;20451;-71
2021/04/07 09:31:49;;;;;;;4.80;4.40;;;2.50;97.70;;;;;;5072845;28;20447;-69
2021/04/07 09:34:16;;;;;;;6.77;5.30;;;2.50;97.70;;;;;;5072806;28;20503;-71
2021/04/07 09:36:45;;;;;;;4.33;4.03;;;2.60;97.60;;;;;;5072764;28;20460;-67
2021/04/07 09:39:16;;;;;;;5.03;4.57;;;2.60;97.50;;;;;;5074953;28;20454;-69
2021/04/07 09:41:44;;;;;;;5.10;4.70;;;2.60;97.60;;;;;;5076531;28;20432;-70
2021/04/07 09:44:12;;;;;;;5.10;4.70;;;2.60;97.50;;;;;;5076572;28;20446;-71
2021/04/07 09:46:39;;;;;;;4.97;4.63;;;2.60;97.50;;;;;;5076108;28;21017;-71
2021/04/07 09:49:06;;;;;;;5.10;4.60;;;2.60;97.60;;;;;;5076162;28;20447;-72
2021/04/07 09:51:34;;;;;;;4.80;4.40;;;2.70;97.70;;;;;;5076367;28;20434;-71
2021/04/07 09:54:17;;;;;;;4.87;4.47;;;2.70;97.70;;;;;;5076115;28;20916;-68
2021/04/07 09:56:49;;;;;;;4.33;4.03;;;2.70;97.80;;;;;;5076212;28;20514;-68
2021/04/07 09:59:16;;;;;;;5.60;5.17;;;2.80;98.00;;;;;;5076278;28;20459;-68
2021/04/07 10:01:43;;;;;;;5.10;4.60;;;2.80;98.00;;;;;;5076087;28;20496;-68
2021/04/07 10:04:10;;;;;;;4.93;4.50;;;2.90;97.90;;;;;;5076203;28;20564;-68
2021/04/07 10:06:36;;;;;;;5.87;5.27;;;2.90;97.90;;;;;;5075628;28;21052;-68
2021/04/07 10:09:04;;;;;;;4.40;4.10;;;2.90;97.80;;;;;;5076075;28;20448;-71
2021/04/07 10:11:31;;;;;;;5.43;5.00;;;3.00;97.90;;;;;;5075692;28;20791;-69
2021/04/07 10:13:59;;;;;;;7.77;6.23;;;3.10;97.80;;;;;;5076028;28;20436;-69
2021/04/07 10:16:26;;;;;;;6.63;5.60;;;3.10;97.70;;;;;;5075538;28;21013;-69
2021/04/07 10:18:52;;;;;;;5.23;4.73;;;3.20;97.60;;;;;;5075899;28;20429;-68
2021/04/07 10:21:20;;;;;;;5.50;5.00;;;3.20;97.40;;;;;;5075864;28;20433;-70
2021/04/07 10:23:48;;;;;;;7.30;6.03;;;3.20;97.30;;;;;;5075769;28;20468;-71
2021/04/07 10:26:20;;;;;;;7.10;6.40;;;3.20;97.20;;;;;;5075754;28;20532;-72
2021/04/07 10:28:55;;;;;;;6.60;6.00;;;3.30;97.50;;;;;;5075835;28;20882;-71
2021/04/07 10:31:23;;;;;;;7.40;6.07;;;3.40;98.00;;;;;;5075710;28;20478;-71
2021/04/07 10:33:49;;;;;;;9.20;6.77;;;3.50;97.80;;;;;;5075314;28;20797;-71
2021/04/07 10:36:15;;;;;;;9.63;6.40;;;3.50;97.60;;;;;;5075176;28;21124;-72
2021/04/07 10:38:43;;;;;;;9.53;7.43;;;3.60;97.70;;;;;;5075560;28;20430;-70
2021/04/07 10:41:10;;;;;;;9.77;7.80;;;3.60;97.70;;;;;;5075147;28;20453;-68
2021/04/07 10:43:39;;;;;;;17.77;8.00;;;3.70;97.60;;;;;;5075420;28;20493;-69
2021/04/07 10:46:07;;;;;;;12.73;8.37;;;3.70;97.50;;;;;;5075236;28;20524;-69
2021/04/07 10:48:35;;;;;;;12.70;8.17;;;3.80;97.70;;;;;;5075352;28;20450;-69
2021/04/07 10:51:02;;;;;;;13.37;7.87;;;3.90;97.60;;;;;;5074356;28;20426;-70
2021/04/07 10:53:30;;;;;;;9.20;8.30;;;3.90;97.60;;;;;;5075245;28;20487;-70
2021/04/07 10:55:57;;;;;;;12.40;7.40;;;4.00;97.40;;;;;;5074812;28;20975;-69
2021/04/07 10:58:28;;;;;;;12.83;8.70;;;3.90;97.30;;;;;;5075181;28;20426;-69
2021/04/07 11:00:54;;;;;;;11.40;9.37;;;4.00;97.60;;;;;;5075054;28;20450;-70
2021/04/07 11:03:39;;;;;;;13.47;8.90;;;4.10;97.70;;;;;;5074695;28;20963;-69
2021/04/07 11:06:06;;;;;;;21.17;10.70;;;4.20;97.70;;;;;;5074892;28;20459;-70
2021/04/07 11:08:37;;;;;;;18.03;9.80;;;4.20;97.60;;;;;;5074608;28;20500;-70
2021/04/07 11:11:04;;;;;;;20.10;9.93;;;4.20;97.20;;;;;;5074909;28;20533;-69
2021/04/07 11:13:31;;;;;;;16.40;8.50;;;4.20;97.30;;;;;;5074547;28;20422;-69
2021/04/07 11:16:09;;;;;;;17.33;9.43;;;4.20;97.40;;;;;;5074365;28;20462;-70
2021/04/07 11:18:36;;;;;;;19.07;9.40;;;4.20;97.20;;;;;;5074765;28;20427;-70
2021/04/07 11:21:05;;;;;;;22.13;9.00;;;4.30;97.30;;;;;;5074639;28;20443;-70
2021/04/07 11:23:31;;;;;;;19.57;9.60;;;4.40;97.60;;;;;;5074521;28;20477;-70
2021/04/07 11:25:57;;;;;;;13.00;8.50;;;4.50;97.70;;;;;;5074565;28;20466;-70
2021/04/07 11:28:24;;;;;;;11.23;8.70;;;4.60;97.50;;;;;;5074502;28;20445;-70
2021/04/07 11:31:03;;;;;;;12.67;7.23;;;4.60;97.20;;;;;;5074170;28;20968;-70
2021/04/07 11:33:39;;;;;;;13.83;9.80;;;4.70;97.10;;;;;;5074495;28;20443;-70
2021/04/07 11:36:15;;;;;;;14.63;9.40;;;4.80;97.10;;;;;;5074367;28;20501;-70
2021/04/07 11:38:45;;;;;;;18.80;9.73;;;4.80;96.80;;;;;;5074294;28;20800;-70
2021/04/07 11:46:39;;;;;;;15.93;10.00;;;5.10;96.80;;;;;;5074029;28;20537;-70
2021/04/07 11:49:06;;;;;;;18.67;8.60;;;5.20;96.80;;;;;;5074065;28;20447;-70
2021/04/07 11:51:38;;;;;;;17.30;8.63;;;5.20;96.20;;;;;;5074101;28;20494;-71
2021/04/07 11:54:05;;;;;;;13.17;8.00;;;5.20;96.10;;;;;;5074050;28;20432;-71
2021/04/07 11:56:31;;;;;;;13.13;7.97;;;5.10;96.30;;;;;;5073891;28;20472;-71
2021/04/07 11:58:58;;;;;;;14.33;8.13;;;5.10;96.40;;;;;;5073920;28;20873;-71
2021/04/07 12:01:24;;;;;;;12.20;7.83;;;5.20;96.70;;;;;;5073733;28;20536;-70
2021/04/07 12:03:50;;;;;;;16.10;8.60;;;5.20;96.50;;;;;;5073807;28;20479;-70
2021/04/07 12:06:17;;;;;;;13.87;8.10;;;5.20;96.60;;;;;;5073774;28;20479;-71
2021/04/07 12:08:44;;;;;;;17.60;9.13;;;5.30;96.50;;;;;;5073672;28;20935;-71
2021/04/07 12:11:10;;;;;;;12.60;8.40;;;5.50;96.90;;;;;;5073775;28;20433;-71
2021/04/07 12:13:36;;;;;;;17.27;8.93;;;5.80;96.60;;;;;;5073776;28;20447;-72
2021/04/07 12:16:03;;;;;;;24.37;9.90;;;6.10;95.90;;;;;;5073353;28;21042;-72
2021/04/07 12:18:29;;;;;;;17.37;8.00;;;6.30;95.90;;;;;;5073667;28;20449;-72
2021/04/07 12:20:55;;;;;;;15.77;9.20;;;6.50;95.50;;;;;;5073885;28;20449;-72
2021/04/07 12:23:22;;;;;;;11.33;6.03;;;6.80;94.40;;;;;;5073274;28;20507;-72
2021/04/07 12:25:49;;;;;;;9.43;4.83;;;6.90;93.60;;;;;;5073530;28;20441;-71
2021/04/07 12:28:15;;;;;;;13.07;5.90;;;6.70;92.50;;;;;;5073586;28;20448;-71
2021/04/07 12:30:49;;;;;;;10.57;5.70;;;6.50;92.50;;;;;;5073285;28;20794;-72
2021/04/07 12:33:16;;;;;;;11.27;5.83;;;6.50;93.60;;;;;;5073592;28;20429;-72
2021/04/07 12:35:43;;;;;;;15.00;5.30;;;6.70;93.90;;;;;;5073462;28;20468;-71
2021/04/07 12:38:09;;;;;;;13.00;5.73;;;6.80;93.60;;;;;;5073456;28;20448;-72
2021/04/07 12:40:36;;;;;;;7.10;4.57;;;7.20;94.10;;;;;;5073447;28;20436;-72
2021/04/07 12:43:03;;;;;;;8.83;4.20;;;7.70;93.40;;;;;;5073355;28;20480;-72
2021/04/07 12:45:29;;;;;;;6.33;4.37;;;8.20;91.60;;;;;;5073387;28;20447;-72
2021/04/07 12:47:55;;;;;;;8.63;4.20;;;8.40;89.90;;;;;;5073303;28;20467;-72
2021/04/07 12:50:22;;;;;;;12.13;3.93;;;8.60;88.20;;;;;;5073337;28;20441;-72
2021/04/07 12:52:48;;;;;;;6.90;3.83;;;8.90;87.30;;;;;;5073337;28;20445;-73
2021/04/07 12:55:14;;;;;;;9.97;4.50;;;9.50;87.90;;;;;;5073307;28;20474;-72
2021/04/07 12:57:40;;;;;;;8.13;4.67;;;9.90;83.00;;;;;;5073237;28;20881;-72
2021/04/07 13:00:09;;;;;;;9.40;4.03;;;9.80;81.90;;;;;;5073027;28;21024;-73